createdAt,value
2023-02-21T00:02:01.530Z,95229.50
2023-02-21T00:04:46.824Z,95215.00
2023-02-21T00:07:32.117Z,95225.94
2023-02-21T00:10:17.616Z,95225.66
2023-02-21T00:13:03.106Z,95228.25
2023-02-21T00:15:48.887Z,95227.91
2023-02-21T00:18:34.093Z,95222.66
2023-02-21T00:21:19.473Z,95225.28
2023-02-21T00:24:04.816Z,95205.66
2023-02-21T00:26:49.844Z,95210.06
2023-02-21T00:29:35.061Z,95214.13
2023-02-21T00:32:20.941Z,95209.78
2023-02-21T00:35:06.256Z,95198.84
2023-02-21T00:37:51.763Z,95205.78
2023-02-21T00:40:37.881Z,95204.63
2023-02-21T00:43:23.379Z,95204.94
2023-02-21T00:46:09.397Z,95213.06
2023-02-21T00:48:54.673Z,95210.53
2023-02-21T00:51:40.212Z,95216.56
2023-02-21T00:54:25.294Z,95212.81
2023-02-21T00:57:10.752Z,95218.91
2023-02-21T00:59:56.042Z,95206.34
2023-02-21T01:02:41.434Z,95216.53
2023-02-21T01:05:27.344Z,95220.03
2023-02-21T01:08:12.823Z,95208.72
2023-02-21T01:10:59.657Z,95201.00
2023-02-21T01:13:44.995Z,95202.97
2023-02-21T01:16:30.597Z,95178.53
2023-02-21T01:19:16.220Z,95189.53
2023-02-21T01:22:02.136Z,95199.44
2023-02-21T01:24:47.573Z,95184.44
2023-02-21T01:27:32.884Z,95196.13
2023-02-21T01:30:17.875Z,95182.50
2023-02-21T01:33:03.343Z,95193.88
2023-02-21T01:35:48.751Z,95169.25
2023-02-21T01:38:34.495Z,95177.41
2023-02-21T01:41:19.801Z,95177.22
2023-02-21T01:44:23.156Z,95174.31
2023-02-21T01:47:08.898Z,95180.63
2023-02-21T01:49:58.556Z,95181.69
2023-02-21T01:52:44.638Z,95185.38
2023-02-21T01:55:30.900Z,95173.69
2023-02-21T01:58:16.393Z,95157.06
2023-02-21T02:01:03.065Z,95152.09
2023-02-21T02:03:49.794Z,95165.25
2023-02-21T02:06:36.017Z,95171.59
2023-02-21T02:09:35.054Z,95168.69
2023-02-21T02:12:31.050Z,95145.34
2023-02-21T02:15:10.435Z,95144.47
2023-02-21T02:18:01.788Z,95141.31
2023-02-21T02:20:38.513Z,95149.53
2023-02-21T02:23:05.439Z,95151.69
2023-02-21T02:25:54.301Z,95152.16
2023-02-21T02:28:34.665Z,95155.47
2023-02-21T02:31:59.133Z,95152.38
2023-02-21T02:34:45.806Z,95151.69
2023-02-21T02:37:35.736Z,95142.19
2023-02-21T02:40:44.320Z,95132.91
2023-02-21T02:43:25.693Z,95144.69
2023-02-21T02:46:09.999Z,95141.34
2023-02-21T02:48:41.065Z,95132.25
2023-02-21T02:51:12.548Z,95133.78
2023-02-21T02:53:40.224Z,95144.47
2023-02-21T02:56:13.445Z,95140.00
2023-02-21T02:59:05.131Z,95124.88
2023-02-21T03:01:50.248Z,95133.22
2023-02-21T03:04:26.183Z,95136.00
2023-02-21T03:07:26.821Z,95117.75
2023-02-21T03:09:53.657Z,95131.34
2023-02-21T03:12:51.461Z,95131.81
2023-02-21T03:15:35.744Z,95141.34
2023-02-21T03:18:37.948Z,95130.41
2023-02-21T03:21:11.603Z,95115.59
2023-02-21T03:23:40.725Z,95129.06
2023-02-21T03:26:10.988Z,95126.88
2023-02-21T03:28:41.595Z,95121.94
2023-02-21T03:31:11.604Z,95124.56
2023-02-21T03:33:38.937Z,95119.31
2023-02-21T03:36:09.624Z,95116.84
2023-02-21T03:38:37.099Z,95124.72
2023-02-21T03:41:04.168Z,95120.81
2023-02-21T03:43:32.627Z,95140.31
2023-02-21T03:46:02.365Z,95143.34
2023-02-21T03:48:32.405Z,95145.66
2023-02-21T03:51:08.677Z,95160.41
2023-02-21T03:53:37.082Z,95142.00
2023-02-21T03:56:05.815Z,95158.75
2023-02-21T03:58:54.269Z,95145.59
2023-02-21T04:01:21.756Z,95155.03
2023-02-21T04:03:49.427Z,95157.53
2023-02-21T04:06:16.320Z,95135.59
2023-02-21T04:08:43.250Z,95106.41
2023-02-21T04:11:10.580Z,95127.16
2023-02-21T04:13:37.344Z,95149.59
2023-02-21T04:16:04.592Z,95149.56
2023-02-21T04:18:35.743Z,95138.25
2023-02-21T04:21:03.893Z,95131.22
2023-02-21T04:23:31.330Z,95132.88
2023-02-21T04:25:58.083Z,95141.13
2023-02-21T04:28:32.128Z,95149.41
2023-02-21T04:30:59.156Z,95138.50
2023-02-21T04:33:26.529Z,95149.66
2023-02-21T04:35:53.416Z,95153.81
2023-02-21T04:38:32.449Z,95151.63
2023-02-21T04:40:59.151Z,95145.88
2023-02-21T04:43:25.964Z,95157.63
2023-02-21T04:45:52.828Z,95152.59
2023-02-21T04:48:20.679Z,95137.53
2023-02-21T04:50:47.887Z,95118.97
2023-02-21T04:53:15.600Z,95107.66
2023-02-21T04:55:42.331Z,95147.34
2023-02-21T04:58:09.020Z,95132.41
2023-02-21T05:00:35.780Z,95130.19
2023-02-21T05:03:02.968Z,95119.88
2023-02-21T05:05:30.104Z,95104.09
2023-02-21T05:07:57.028Z,95125.66
2023-02-21T05:10:27.006Z,95115.38
2023-02-21T05:12:58.230Z,95112.56
2023-02-21T05:15:24.998Z,95095.44
2023-02-21T05:17:51.686Z,95086.38
2023-02-21T05:20:18.677Z,95091.25
2023-02-21T05:22:45.580Z,95071.59
2023-02-21T05:25:21.535Z,95069.25
2023-02-21T05:27:50.218Z,95059.78
2023-02-21T05:30:20.401Z,95056.38
2023-02-21T05:32:47.194Z,95056.75
2023-02-21T05:35:16.253Z,95052.41
2023-02-21T05:37:43.169Z,95056.47
2023-02-21T05:40:13.638Z,95064.09
2023-02-21T05:42:40.327Z,95050.34
2023-02-21T05:45:07.561Z,95047.13
2023-02-21T05:47:35.185Z,95070.91
2023-02-21T05:50:03.214Z,95045.72
2023-02-21T05:52:30.016Z,95043.84
2023-02-21T05:54:57.174Z,95047.91
2023-02-21T05:57:23.944Z,95045.41
2023-02-21T05:59:50.612Z,95063.59
2023-02-21T06:02:17.509Z,95091.63
2023-02-21T06:04:44.238Z,95084.75
2023-02-21T06:07:11.588Z,95076.28
2023-02-21T06:09:38.303Z,95091.47
2023-02-21T06:12:05.186Z,95077.19
2023-02-21T06:14:32.284Z,95088.47
2023-02-21T06:17:01.261Z,95082.75
2023-02-21T06:19:27.963Z,95089.47
2023-02-21T06:21:54.650Z,95072.88
2023-02-21T06:24:21.426Z,95071.50
2023-02-21T06:26:48.758Z,95062.56
2023-02-21T06:29:15.489Z,95065.72
2023-02-21T06:31:42.669Z,95087.75
2023-02-21T06:34:09.532Z,95092.25
2023-02-21T06:36:36.291Z,95093.91
2023-02-21T06:39:03.786Z,95097.34
2023-02-21T06:41:32.509Z,95096.50
2023-02-21T06:44:00.341Z,95104.03
2023-02-21T06:46:30.305Z,95098.28
2023-02-21T06:48:57.718Z,95092.56
2023-02-21T06:51:29.629Z,95083.66
2023-02-21T06:53:58.438Z,95094.91
2023-02-21T06:56:25.437Z,95100.50
2023-02-21T06:58:52.428Z,95106.53
2023-02-21T07:01:19.657Z,95102.28
2023-02-21T07:03:48.001Z,95098.81
2023-02-21T07:06:15.435Z,95114.41
2023-02-21T07:08:42.751Z,95095.94
2023-02-21T07:11:09.863Z,95096.13
2023-02-21T07:13:36.729Z,95089.09
2023-02-21T07:16:04.767Z,95094.94
2023-02-21T07:18:31.981Z,95100.41
2023-02-21T07:20:58.995Z,95103.66
2023-02-21T07:23:26.234Z,95089.88
2023-02-21T07:25:53.448Z,95115.97
2023-02-21T07:28:20.142Z,95122.28
2023-02-21T07:30:47.507Z,95109.63
2023-02-21T07:33:14.803Z,95110.19
2023-02-21T07:35:42.130Z,95112.81
2023-02-21T07:38:08.893Z,95124.94
2023-02-21T07:40:35.654Z,95100.00
2023-02-21T07:43:02.505Z,95110.94
2023-02-21T07:45:29.399Z,95108.19
2023-02-21T07:47:56.365Z,95102.84
2023-02-21T07:50:23.782Z,95118.91
2023-02-21T07:52:50.818Z,95107.19
2023-02-21T07:55:18.397Z,95122.88
2023-02-21T07:57:46.368Z,95123.63
2023-02-21T08:00:14.605Z,95150.50
2023-02-21T08:02:41.786Z,95172.81
2023-02-21T08:05:09.820Z,95182.53
2023-02-21T08:07:36.619Z,95206.78
2023-02-21T08:10:03.882Z,95214.06
2023-02-21T08:12:30.590Z,95210.06
2023-02-21T08:14:58.540Z,95218.94
2023-02-21T08:17:25.809Z,95218.66
2023-02-21T08:19:52.763Z,95230.09
2023-02-21T08:22:20.674Z,95220.59
2023-02-21T08:24:50.976Z,95240.81
2023-02-21T08:27:18.862Z,95243.13
2023-02-21T08:29:45.541Z,95245.19
2023-02-21T08:32:12.700Z,95248.31
2023-02-21T08:34:39.469Z,95251.47
2023-02-21T08:37:14.707Z,95251.13
2023-02-21T08:39:45.698Z,95257.75
2023-02-21T08:42:13.804Z,95242.34
2023-02-21T08:44:44.489Z,95245.81
2023-02-21T08:47:12.253Z,95286.72
2023-02-21T08:49:41.056Z,95258.44
2023-02-21T08:52:09.097Z,95248.59
2023-02-21T08:54:36.894Z,95275.81
2023-02-21T08:57:04.190Z,95288.91
2023-02-21T08:59:33.534Z,95296.84
2023-02-21T09:02:01.830Z,95295.97
2023-02-21T09:04:29.386Z,95308.97
2023-02-21T09:06:56.754Z,95306.63
2023-02-21T09:09:23.923Z,95306.03
2023-02-21T09:11:50.803Z,95324.03
2023-02-21T09:14:18.132Z,95328.47
2023-02-21T09:16:47.668Z,95310.81
2023-02-21T09:19:14.705Z,95314.41
2023-02-21T09:21:47.196Z,95310.94
2023-02-21T09:24:14.523Z,95294.91
2023-02-21T09:26:42.739Z,95289.41
2023-02-21T09:29:12.320Z,95285.88
2023-02-21T09:31:39.318Z,95273.84
2023-02-21T09:34:06.059Z,95276.56
2023-02-21T09:36:36.112Z,95273.22
2023-02-21T09:39:06.714Z,95269.84
2023-02-21T09:41:35.711Z,95265.75
2023-02-21T09:44:06.140Z,95269.84
2023-02-21T09:46:42.858Z,95287.47
2023-02-21T09:49:33.750Z,95308.38
2023-02-21T09:52:01.885Z,95286.28
2023-02-21T09:54:32.321Z,95286.28
2023-02-21T09:57:03.599Z,95290.94
2023-02-21T09:59:30.989Z,95283.69
2023-02-21T10:02:18.843Z,95290.22
2023-02-21T10:04:57.890Z,95292.56
2023-02-21T10:08:00.144Z,95294.84
2023-02-21T10:10:37.212Z,95312.47
2023-02-21T10:13:09.682Z,95295.22
2023-02-21T10:15:55.753Z,95301.38
2023-02-21T10:18:37.477Z,95301.13
2023-02-21T10:21:14.201Z,95290.63
2023-02-21T10:23:46.806Z,95306.09
2023-02-21T10:26:27.794Z,95312.06
2023-02-21T10:28:57.232Z,95316.75
2023-02-21T10:31:42.419Z,95299.63
2023-02-21T10:34:23.650Z,95321.13
2023-02-21T10:36:52.012Z,95306.28
2023-02-21T10:39:25.295Z,95317.16
2023-02-21T10:41:53.118Z,95302.69
2023-02-21T10:44:27.142Z,95312.66
2023-02-21T10:47:19.553Z,95312.66
2023-02-21T10:49:54.259Z,95315.59
2023-02-21T10:52:21.698Z,95297.91
2023-02-21T10:55:10.627Z,95310.97
2023-02-21T10:57:43.583Z,95296.28
2023-02-21T11:00:35.408Z,95296.84
2023-02-21T11:03:24.051Z,95296.44
2023-02-21T11:05:52.811Z,95308.53
2023-02-21T11:08:39.996Z,95307.75
2023-02-21T11:11:07.748Z,95308.53
2023-02-21T11:13:36.769Z,95274.75
2023-02-21T11:16:12.412Z,95281.69
2023-02-21T11:18:39.605Z,95291.22
2023-02-21T11:21:16.892Z,95283.59
2023-02-21T11:23:59.287Z,95280.59
2023-02-21T11:26:27.684Z,95285.78
2023-02-21T11:28:54.401Z,95280.91
2023-02-21T11:31:34.573Z,95270.88
2023-02-21T11:34:06.088Z,95270.75
2023-02-21T11:36:35.862Z,95249.25
2023-02-21T11:39:27.822Z,95254.47
2023-02-21T11:42:00.671Z,95258.84
2023-02-21T11:44:30.190Z,95230.63
2023-02-21T11:47:23.352Z,95235.09
2023-02-21T11:50:09.953Z,95255.88
2023-02-21T11:52:48.710Z,95247.97
2023-02-21T11:55:19.902Z,95235.13
2023-02-21T11:58:12.575Z,95229.13
2023-02-21T12:01:06.363Z,95220.00
2023-02-21T12:03:40.020Z,95211.72
2023-02-21T12:06:29.428Z,95227.22
2023-02-21T12:09:05.013Z,95184.50
2023-02-21T12:11:42.141Z,95183.91
2023-02-21T12:14:26.991Z,95201.94
2023-02-21T12:17:00.360Z,95196.34
2023-02-21T12:19:46.244Z,95199.00
2023-02-21T12:22:32.622Z,95183.94
2023-02-21T12:25:16.668Z,95202.00
2023-02-21T12:28:21.654Z,95185.16
2023-02-21T12:31:08.970Z,95169.59
2023-02-21T12:33:51.573Z,95169.88
2023-02-21T12:36:24.009Z,95166.00
2023-02-21T12:39:25.424Z,95158.38
2023-02-21T12:42:04.396Z,95146.66
2023-02-21T12:44:47.477Z,95153.09
2023-02-21T12:47:20.309Z,95144.88
2023-02-21T12:49:53.955Z,95116.06
2023-02-21T12:52:41.025Z,95129.59
2023-02-21T12:55:26.961Z,95129.66
2023-02-21T12:58:10.794Z,95119.78
2023-02-21T13:00:58.921Z,95141.09
2023-02-21T13:03:50.444Z,95112.59
2023-02-21T13:06:29.966Z,95117.72
2023-02-21T13:09:07.162Z,95119.25
2023-02-21T13:12:16.521Z,95089.22
2023-02-21T13:14:56.156Z,95111.03
2023-02-21T13:17:24.137Z,95102.44
2023-02-21T13:20:01.930Z,95102.47
2023-02-21T13:23:25.209Z,95109.59
2023-02-21T13:26:56.014Z,95085.44
2023-02-21T13:29:31.255Z,95073.69
2023-02-21T13:32:07.259Z,95085.50
2023-02-21T13:34:40.875Z,95084.50
2023-02-21T13:37:17.199Z,95074.28
2023-02-21T13:39:54.263Z,95068.19
2023-02-21T13:42:25.208Z,95073.03
2023-02-21T13:45:14.455Z,95072.88
2023-02-21T13:47:53.866Z,95065.66
2023-02-21T13:50:39.299Z,95055.56
2023-02-21T13:53:09.353Z,95035.44
2023-02-21T13:55:38.767Z,95043.16
2023-02-21T13:58:07.400Z,95032.53
2023-02-21T14:00:34.258Z,95028.97
2023-02-21T14:03:08.904Z,95034.25
2023-02-21T14:05:45.252Z,95027.94
2023-02-21T14:08:43.144Z,95031.59
2023-02-21T14:11:10.783Z,95031.69
2023-02-21T14:13:53.946Z,95022.94
2023-02-21T14:16:24.602Z,95038.88
2023-02-21T14:18:55.240Z,95028.03
2023-02-21T14:21:22.708Z,95023.72
2023-02-21T14:24:11.223Z,95019.78
2023-02-21T14:27:05.541Z,95020.50
2023-02-21T14:30:10.982Z,95028.69
2023-02-21T14:32:48.584Z,95024.47
2023-02-21T14:35:31.007Z,95026.66
2023-02-21T14:38:02.730Z,95012.44
2023-02-21T14:40:35.376Z,95019.75
2023-02-21T14:43:37.945Z,95008.69
2023-02-21T14:46:23.022Z,94987.88
2023-02-21T14:49:08.050Z,94988.44
2023-02-21T14:51:58.618Z,94978.94
2023-02-21T14:54:58.137Z,94989.28
2023-02-21T14:57:46.838Z,94978.13
2023-02-21T15:00:28.665Z,94968.09
2023-02-21T15:03:13.820Z,94968.06
2023-02-21T15:05:43.248Z,94966.94
2023-02-21T15:08:24.722Z,94963.94
2023-02-21T15:11:03.209Z,94958.94
2023-02-21T15:13:33.996Z,94966.72
2023-02-21T15:16:05.768Z,94958.34
2023-02-21T15:18:35.883Z,94941.97
2023-02-21T15:21:11.999Z,94928.22
2023-02-21T15:23:44.258Z,94931.25
2023-02-21T15:26:27.486Z,94934.47
2023-02-21T15:29:12.910Z,94914.19
2023-02-21T15:31:43.548Z,94928.28
2023-02-21T15:34:32.640Z,94909.00
2023-02-21T15:37:18.138Z,94902.81
2023-02-21T15:39:52.519Z,94905.06
2023-02-21T15:42:21.178Z,94903.78
2023-02-21T15:44:59.003Z,94884.94
2023-02-21T15:47:28.695Z,94881.09
2023-02-21T15:50:04.455Z,94880.72
2023-02-21T15:52:51.488Z,94864.69
2023-02-21T15:55:18.696Z,94855.38
2023-02-21T15:58:04.124Z,94852.56
2023-02-21T16:00:35.303Z,94836.44
2023-02-21T16:03:27.651Z,94838.34
2023-02-21T16:06:18.138Z,94822.00
2023-02-21T16:09:02.220Z,94834.50
2023-02-21T16:11:44.880Z,94825.31
2023-02-21T16:14:25.568Z,94830.88
2023-02-21T16:17:05.912Z,94828.16
2023-02-21T16:19:34.485Z,94825.41
2023-02-21T16:22:53.872Z,94823.28
2023-02-21T16:25:25.594Z,94812.81
2023-02-21T16:27:56.083Z,94824.09
2023-02-21T16:30:27.457Z,94823.63
2023-02-21T16:33:02.667Z,94815.53
2023-02-21T16:35:31.188Z,94815.97
2023-02-21T16:37:59.859Z,94819.66
2023-02-21T16:40:34.155Z,94818.38
2023-02-21T16:43:02.744Z,94822.94
2023-02-21T16:45:30.826Z,94814.38
2023-02-21T16:48:01.373Z,94814.38
2023-02-21T16:50:31.136Z,94814.81
2023-02-21T16:52:58.869Z,94804.97
2023-02-21T16:55:26.968Z,94813.59
2023-02-21T16:57:58.022Z,94808.06
2023-02-21T17:00:25.828Z,94807.63
2023-02-21T17:02:53.754Z,94809.22
2023-02-21T17:05:22.088Z,94813.44
2023-02-21T17:07:57.468Z,94806.47
2023-02-21T17:10:24.863Z,94822.91
2023-02-21T17:12:51.881Z,94825.19
2023-02-21T17:15:19.391Z,94814.91
2023-02-21T17:17:52.791Z,94816.72
2023-02-21T17:20:22.234Z,94819.03
2023-02-21T17:22:49.872Z,94808.97
2023-02-21T17:25:18.079Z,94808.50
2023-02-21T17:27:45.600Z,94817.69
2023-02-21T17:30:13.798Z,94814.91
2023-02-21T17:32:41.923Z,94816.44
2023-02-21T17:35:09.932Z,94820.31
2023-02-21T17:37:36.694Z,94823.94
2023-02-21T17:40:05.024Z,94818.69
2023-02-21T17:42:31.798Z,94825.63
2023-02-21T17:45:00.162Z,94819.59
2023-02-21T17:47:27.116Z,94828.31
2023-02-21T17:50:00.328Z,94825.00
2023-02-21T17:52:28.229Z,94826.25
2023-02-21T17:54:56.552Z,94824.81
2023-02-21T17:57:24.161Z,94823.81
2023-02-21T17:59:52.870Z,94822.13
2023-02-21T18:02:20.822Z,94825.41
2023-02-21T18:04:49.185Z,94823.00
2023-02-21T18:07:15.992Z,94820.94
2023-02-21T18:09:46.507Z,94807.53
2023-02-21T18:12:13.360Z,94814.50
2023-02-21T18:14:40.287Z,94823.19
2023-02-21T18:17:07.021Z,94827.25
2023-02-21T18:19:33.741Z,94815.81
2023-02-21T18:22:05.274Z,94815.75
2023-02-21T18:24:32.170Z,94822.28
2023-02-21T18:26:59.014Z,94820.72
2023-02-21T18:29:25.707Z,94820.44
2023-02-21T18:31:54.445Z,94813.47
2023-02-21T18:34:22.140Z,94815.03
2023-02-21T18:36:54.434Z,94815.03
2023-02-21T18:39:23.224Z,94810.16
2023-02-21T18:41:50.507Z,94798.41
2023-02-21T18:44:17.371Z,94782.03
2023-02-21T18:46:54.528Z,94767.91
2023-02-21T18:49:25.727Z,94768.75
2023-02-21T18:51:53.527Z,94795.50
2023-02-21T18:54:21.279Z,94803.13
2023-02-21T18:56:50.658Z,94798.28
2023-02-21T18:59:22.562Z,94797.25
2023-02-21T19:01:50.925Z,94781.03
2023-02-21T19:04:18.212Z,94810.16
2023-02-21T19:06:45.708Z,94798.59
2023-02-21T19:09:13.217Z,94818.81
2023-02-21T19:11:40.120Z,94818.00
2023-02-21T19:14:07.747Z,94809.59
2023-02-21T19:16:34.914Z,94812.72
2023-02-21T19:19:04.741Z,94809.53
2023-02-21T19:21:32.011Z,94784.66
2023-02-21T19:23:58.804Z,94802.53
2023-02-21T19:26:30.713Z,94783.41
2023-02-21T19:28:57.664Z,94768.97
2023-02-21T19:31:25.030Z,94768.31
2023-02-21T19:33:51.822Z,94766.41
2023-02-21T19:36:21.372Z,94764.44
2023-02-21T19:38:48.793Z,94755.03
2023-02-21T19:41:17.912Z,94766.00
2023-02-21T19:43:44.927Z,94768.25
2023-02-21T19:46:24.078Z,94782.56
2023-02-21T19:48:51.658Z,94784.31
2023-02-21T19:51:21.392Z,94791.63
2023-02-21T19:53:48.458Z,94792.53
2023-02-21T19:56:15.428Z,94773.31
2023-02-21T19:58:45.138Z,94778.28
2023-02-21T20:01:12.691Z,94771.88
2023-02-21T20:03:47.504Z,94755.66
2023-02-21T20:06:18.863Z,94738.09
2023-02-21T20:08:48.230Z,94749.69
2023-02-21T20:11:19.532Z,94732.88
2023-02-21T20:13:46.387Z,94745.47
2023-02-21T20:16:19.692Z,94738.41
2023-02-21T20:18:47.836Z,94749.53
2023-02-21T20:21:19.687Z,94772.25
2023-02-21T20:23:46.693Z,94768.16
2023-02-21T20:26:14.188Z,94783.13
2023-02-21T20:28:41.740Z,94767.28
2023-02-21T20:31:24.915Z,94773.06
2023-02-21T20:33:52.362Z,94765.16
2023-02-21T20:36:30.599Z,94771.38
2023-02-21T20:38:58.037Z,94768.69
2023-02-21T20:41:29.400Z,94760.94
2023-02-21T20:43:56.136Z,94743.47
2023-02-21T20:46:24.855Z,94731.78
2023-02-21T20:48:51.990Z,94750.94
2023-02-21T20:51:30.862Z,94757.78
2023-02-21T20:54:00.375Z,94755.78
2023-02-21T20:56:35.201Z,94762.50
2023-02-21T20:59:05.273Z,94738.72
2023-02-21T21:01:32.123Z,94734.63
2023-02-21T21:03:58.894Z,94772.06
2023-02-21T21:06:26.298Z,94767.13
2023-02-21T21:08:54.732Z,94760.94
2023-02-21T21:11:22.304Z,94769.94
2023-02-21T21:13:50.253Z,94757.78
2023-02-21T21:16:17.423Z,94738.78
2023-02-21T21:18:44.355Z,94728.41
2023-02-21T21:21:12.436Z,94740.72
2023-02-21T21:23:39.356Z,94741.25
2023-02-21T21:26:10.002Z,94757.59
2023-02-21T21:28:36.971Z,94757.13
2023-02-21T21:31:04.291Z,94764.75
2023-02-21T21:33:31.095Z,94754.31
2023-02-21T21:36:00.508Z,94720.53
2023-02-21T21:38:28.952Z,94725.50
2023-02-21T21:40:57.510Z,94730.28
2023-02-21T21:43:25.089Z,94746.16
2023-02-21T21:45:52.841Z,94746.03
2023-02-21T21:48:19.707Z,94749.25
2023-02-21T21:50:46.555Z,94726.13
2023-02-21T21:53:14.384Z,94738.28
2023-02-21T21:55:41.515Z,94746.34
2023-02-21T21:58:14.039Z,94745.97
2023-02-21T22:00:46.292Z,94752.28
2023-02-21T22:03:18.376Z,94733.81
2023-02-21T22:05:47.044Z,94730.25
2023-02-21T22:08:18.774Z,94743.38
2023-02-21T22:10:46.012Z,94718.22
2023-02-21T22:13:21.205Z,94737.94
2023-02-21T22:15:48.859Z,94740.72
2023-02-21T22:18:19.757Z,94730.38
2023-02-21T22:20:50.398Z,94738.75
2023-02-21T22:23:24.336Z,94733.50
2023-02-21T22:25:52.191Z,94733.69
2023-02-21T22:28:19.060Z,94742.31
2023-02-21T22:30:46.338Z,94736.28
2023-02-21T22:33:17.934Z,94725.91
2023-02-21T22:35:45.409Z,94709.59
2023-02-21T22:38:14.522Z,94718.06
2023-02-21T22:40:42.830Z,94724.91
2023-02-21T22:43:10.053Z,94726.84
2023-02-21T22:45:38.151Z,94725.94
2023-02-21T22:48:07.353Z,94722.63
2023-02-21T22:50:37.234Z,94716.09
2023-02-21T22:53:08.262Z,94717.75
2023-02-21T22:55:37.365Z,94724.97
2023-02-21T22:58:07.570Z,94722.22
2023-02-21T23:00:35.535Z,94718.06
2023-02-21T23:03:13.368Z,94729.75
2023-02-21T23:05:46.672Z,94713.81
2023-02-21T23:08:15.555Z,94712.38
2023-02-21T23:10:42.554Z,94718.97
2023-02-21T23:13:16.168Z,94709.69
2023-02-21T23:15:44.619Z,94710.69
2023-02-21T23:18:20.315Z,94712.81
2023-02-21T23:20:49.459Z,94719.38
2023-02-21T23:23:16.176Z,94708.09
2023-02-21T23:25:43.366Z,94722.97
2023-02-21T23:28:13.481Z,94717.31
2023-02-21T23:30:41.606Z,94696.00
2023-02-21T23:33:14.499Z,94679.38
2023-02-21T23:35:46.530Z,94679.94
2023-02-21T23:38:16.077Z,94698.44
2023-02-21T23:40:47.412Z,94704.16
2023-02-21T23:43:17.779Z,94714.91
2023-02-21T23:45:48.301Z,94683.19
2023-02-21T23:48:15.771Z,94694.66
2023-02-21T23:50:45.153Z,94680.84
2023-02-21T23:53:20.445Z,94687.47
2023-02-21T23:55:48.976Z,94702.41
2023-02-21T23:58:18.661Z,94706.78
